createdAt,value
2022-12-26T00:00:21.765Z,18.40
2022-12-26T00:02:48.438Z,18.40
2022-12-26T00:05:15.195Z,18.40
2022-12-26T00:07:41.773Z,18.40
2022-12-26T00:10:08.564Z,18.40
2022-12-26T00:12:35.469Z,18.30
2022-12-26T00:15:02.233Z,18.30
2022-12-26T00:17:28.862Z,18.40
2022-12-26T00:19:55.473Z,18.30
2022-12-26T00:22:22.134Z,18.40
2022-12-26T00:24:48.798Z,18.30
2022-12-26T00:27:15.413Z,18.30
2022-12-26T00:29:42.029Z,18.30
2022-12-26T00:32:08.693Z,18.30
2022-12-26T00:34:36.642Z,18.30
2022-12-26T00:37:03.295Z,18.30
2022-12-26T00:39:30.012Z,18.30
2022-12-26T00:41:56.595Z,18.30
2022-12-26T00:44:23.214Z,18.30
2022-12-26T00:46:49.862Z,18.30
2022-12-26T00:49:16.491Z,18.30
2022-12-26T00:51:43.202Z,18.30
2022-12-26T00:54:09.826Z,18.30
2022-12-26T00:56:36.443Z,18.30
2022-12-26T00:59:03.140Z,18.30
2022-12-26T01:01:31.063Z,18.30
2022-12-26T01:03:58.515Z,18.30
2022-12-26T01:06:27.276Z,18.30
2022-12-26T01:08:54.096Z,18.30
2022-12-26T01:11:40.052Z,18.30
2022-12-26T01:14:09.718Z,18.30
2022-12-26T01:16:37.607Z,18.30
2022-12-26T01:19:04.746Z,18.20
2022-12-26T01:21:31.411Z,18.30
2022-12-26T01:23:57.998Z,18.20
2022-12-26T01:26:24.744Z,18.30
2022-12-26T01:28:52.277Z,18.30
2022-12-26T01:31:20.329Z,18.30
2022-12-26T01:33:47.559Z,18.30
2022-12-26T01:36:14.324Z,18.30
2022-12-26T01:38:40.994Z,18.30
2022-12-26T01:41:19.971Z,18.30
2022-12-26T01:44:01.770Z,18.30
2022-12-26T01:46:39.181Z,18.30
2022-12-26T01:49:15.777Z,18.20
2022-12-26T01:51:48.383Z,18.20
2022-12-26T01:54:41.173Z,18.20
2022-12-26T01:57:07.149Z,18.20
2022-12-26T01:59:38.358Z,18.20
2022-12-26T02:02:05.537Z,18.20
2022-12-26T02:04:56.031Z,18.20
2022-12-26T02:07:23.363Z,18.20
2022-12-26T02:09:51.036Z,18.20
2022-12-26T02:12:35.060Z,18.20
2022-12-26T02:15:13.992Z,18.20
2022-12-26T02:17:41.135Z,18.20
2022-12-26T02:20:16.479Z,19.40
2022-12-26T02:22:58.376Z,18.20
2022-12-26T02:25:36.989Z,18.20
2022-12-26T02:28:31.347Z,18.20
2022-12-26T02:31:07.200Z,18.20
2022-12-26T02:33:57.966Z,18.20
2022-12-26T02:36:46.798Z,18.20
2022-12-26T02:39:44.236Z,18.20
2022-12-26T02:42:35.094Z,18.20
2022-12-26T02:45:29.835Z,18.20
2022-12-26T02:48:16.017Z,18.20
2022-12-26T02:51:08.042Z,18.20
2022-12-26T02:54:13.607Z,18.20
2022-12-26T02:57:05.495Z,18.20
2022-12-26T03:00:00.416Z,18.20
2022-12-26T03:03:06.226Z,18.20
2022-12-26T03:06:02.318Z,18.20
2022-12-26T03:08:54.139Z,18.20
2022-12-26T03:11:42.713Z,18.20
2022-12-26T03:14:23.389Z,18.20
2022-12-26T03:17:14.536Z,18.20
2022-12-26T03:19:58.089Z,18.20
2022-12-26T03:23:05.265Z,18.10
2022-12-26T03:26:16.063Z,18.10
2022-12-26T03:28:43.756Z,18.20
2022-12-26T03:31:15.823Z,18.20
2022-12-26T03:34:04.152Z,18.20
2022-12-26T03:37:16.448Z,18.10
2022-12-26T03:40:08.200Z,18.10
2022-12-26T03:43:15.673Z,18.10
2022-12-26T03:46:26.177Z,18.20
2022-12-26T03:49:26.444Z,18.20
2022-12-26T03:52:50.104Z,18.10
2022-12-26T03:55:43.459Z,18.20
2022-12-26T03:58:42.370Z,18.20
2022-12-26T04:01:35.124Z,18.20
2022-12-26T04:04:23.995Z,18.20
2022-12-26T04:07:26.877Z,18.10
2022-12-26T04:10:27.586Z,18.10
2022-12-26T04:13:16.117Z,18.10
2022-12-26T04:16:09.867Z,18.10
2022-12-26T04:19:02.525Z,17.30
2022-12-26T04:22:02.946Z,18.10
2022-12-26T04:24:54.932Z,18.10
2022-12-26T04:27:44.862Z,18.10
2022-12-26T04:30:30.132Z,18.10
2022-12-26T04:33:23.890Z,18.10
2022-12-26T04:36:13.739Z,18.10
2022-12-26T04:39:07.287Z,18.10
2022-12-26T04:41:54.197Z,18.10
2022-12-26T04:44:25.418Z,18.10
2022-12-26T04:46:54.016Z,18.10
2022-12-26T04:49:39.611Z,18.10
2022-12-26T04:52:09.679Z,18.10
2022-12-26T04:54:36.346Z,18.10
2022-12-26T04:57:03.580Z,18.10
2022-12-26T04:59:30.283Z,18.10
2022-12-26T05:02:15.512Z,18.10
2022-12-26T05:05:00.603Z,18.10
2022-12-26T05:07:51.237Z,18.10
2022-12-26T05:10:26.474Z,18.10
2022-12-26T05:12:54.403Z,18.10
2022-12-26T05:15:21.565Z,18.10
2022-12-26T05:18:07.108Z,18.10
2022-12-26T05:20:52.420Z,18.10
2022-12-26T05:23:44.432Z,18.10
2022-12-26T05:26:39.255Z,18.10
2022-12-26T05:29:06.024Z,18.10
2022-12-26T05:31:36.056Z,18.10
2022-12-26T05:34:08.512Z,18.10
2022-12-26T05:36:39.039Z,18.10
2022-12-26T05:39:07.276Z,18.10
2022-12-26T05:41:34.182Z,18.10
2022-12-26T05:44:00.825Z,18.10
2022-12-26T05:46:27.521Z,18.10
2022-12-26T05:48:54.315Z,18.10
2022-12-26T05:51:21.069Z,18.10
2022-12-26T05:53:48.460Z,18.10
2022-12-26T05:56:16.755Z,18.10
2022-12-26T05:58:43.781Z,18.10
2022-12-26T06:01:16.336Z,18.10
2022-12-26T06:03:47.336Z,18.10
2022-12-26T06:06:15.289Z,18.10
2022-12-26T06:08:41.898Z,18.10
2022-12-26T06:11:11.611Z,18.10
2022-12-26T06:13:39.914Z,18.10
2022-12-26T06:16:14.666Z,18.10
2022-12-26T06:18:41.634Z,18.10
2022-12-26T06:21:10.588Z,18.10
2022-12-26T06:23:38.270Z,18.10
2022-12-26T06:26:05.263Z,18.10
2022-12-26T06:28:33.600Z,18.10
2022-12-26T06:31:21.480Z,18.10
2022-12-26T06:33:50.467Z,15.50
2022-12-26T06:36:20.411Z,18.10
2022-12-26T06:38:47.062Z,18.10
2022-12-26T06:41:15.962Z,18.10
2022-12-26T06:43:43.097Z,18.10
2022-12-26T06:46:13.229Z,18.10
2022-12-26T06:48:40.379Z,18.10
2022-12-26T06:51:12.760Z,18.10
2022-12-26T06:53:39.794Z,18.10
2022-12-26T06:56:08.833Z,18.10
2022-12-26T06:58:35.665Z,18.10
2022-12-26T07:01:07.247Z,18.10
2022-12-26T07:03:34.291Z,18.10
2022-12-26T07:06:11.391Z,18.10
2022-12-26T07:08:38.299Z,18.10
2022-12-26T07:11:05.368Z,18.10
2022-12-26T07:13:31.993Z,18.10
2022-12-26T07:16:00.038Z,18.10
2022-12-26T07:18:26.732Z,18.10
2022-12-26T07:20:53.451Z,18.10
2022-12-26T07:23:20.090Z,18.10
2022-12-26T07:25:49.546Z,18.10
2022-12-26T07:28:16.133Z,18.10
2022-12-26T07:30:50.388Z,18.10
2022-12-26T07:33:17.216Z,18.10
2022-12-26T07:35:44.213Z,18.10
2022-12-26T07:38:12.224Z,18.10
2022-12-26T07:40:38.852Z,18.10
2022-12-26T07:43:05.497Z,18.10
2022-12-26T07:45:32.351Z,18.10
2022-12-26T07:47:59.314Z,18.10
2022-12-26T07:50:26.796Z,18.10
2022-12-26T07:52:53.766Z,18.10
2022-12-26T07:55:21.108Z,18.10
2022-12-26T07:57:56.851Z,18.10
2022-12-26T08:00:23.434Z,18.10
2022-12-26T08:02:51.156Z,18.10
2022-12-26T08:05:18.432Z,18.10
2022-12-26T08:07:48.130Z,18.10
2022-12-26T08:10:16.182Z,18.10
2022-12-26T08:12:43.140Z,18.10
2022-12-26T08:15:12.487Z,17.40
2022-12-26T08:17:39.160Z,18.10
2022-12-26T08:20:06.396Z,18.10
2022-12-26T08:22:33.044Z,18.10
2022-12-26T08:24:59.643Z,18.10
2022-12-26T08:27:26.289Z,18.10
2022-12-26T08:29:52.875Z,18.10
2022-12-26T08:32:19.548Z,18.20
2022-12-26T08:34:46.265Z,18.40
2022-12-26T08:37:14.055Z,18.40
2022-12-26T08:39:40.655Z,18.50
2022-12-26T08:42:07.270Z,18.50
2022-12-26T08:44:33.906Z,18.60
2022-12-26T08:47:00.533Z,18.60
2022-12-26T08:49:27.169Z,18.60
2022-12-26T08:51:53.894Z,18.60
2022-12-26T08:54:20.496Z,18.50
2022-12-26T08:56:47.130Z,18.50
2022-12-26T08:59:14.610Z,18.40
2022-12-26T09:01:41.247Z,18.40
2022-12-26T09:04:08.086Z,18.30
2022-12-26T09:06:36.805Z,17.30
2022-12-26T09:09:04.721Z,17.20
2022-12-26T09:11:32.052Z,16.80
2022-12-26T09:14:00.876Z,16.60
2022-12-26T09:16:37.278Z,16.30
2022-12-26T09:19:05.995Z,16.70
2022-12-26T09:21:33.092Z,17.10
2022-12-26T09:24:01.981Z,17.40
2022-12-26T09:26:29.207Z,17.50
2022-12-26T09:28:56.575Z,17.80
2022-12-26T09:31:31.128Z,17.80
2022-12-26T09:33:58.068Z,17.90
2022-12-26T09:36:28.880Z,17.90
2022-12-26T09:38:57.283Z,17.90
2022-12-26T09:41:31.811Z,17.90
2022-12-26T09:44:15.088Z,17.90
2022-12-26T09:47:06.846Z,17.90
2022-12-26T09:49:42.574Z,18.00
2022-12-26T09:52:18.529Z,18.00
2022-12-26T09:54:56.208Z,18.00
2022-12-26T09:57:42.328Z,18.00
2022-12-26T10:00:20.301Z,18.00
2022-12-26T10:02:51.892Z,18.00
2022-12-26T10:05:20.327Z,18.00
2022-12-26T10:08:01.356Z,18.00
2022-12-26T10:10:46.609Z,18.00
2022-12-26T10:13:40.650Z,18.00
2022-12-26T10:16:24.651Z,18.10
2022-12-26T10:18:58.067Z,18.00
2022-12-26T10:21:43.164Z,18.10
2022-12-26T10:24:20.852Z,18.10
2022-12-26T10:27:01.610Z,18.10
2022-12-26T10:29:33.609Z,18.10
2022-12-26T10:32:14.064Z,18.10
2022-12-26T10:34:46.950Z,18.20
2022-12-26T10:37:37.829Z,18.20
2022-12-26T10:40:19.541Z,18.30
2022-12-26T10:42:55.243Z,18.30
2022-12-26T10:45:32.484Z,18.30
2022-12-26T10:47:59.184Z,18.40
2022-12-26T10:50:34.897Z,18.40
2022-12-26T10:53:05.193Z,18.40
2022-12-26T10:55:35.180Z,18.40
2022-12-26T10:58:14.434Z,18.50
2022-12-26T11:00:41.055Z,18.50
2022-12-26T11:03:09.151Z,18.50
2022-12-26T11:06:07.153Z,18.50
2022-12-26T11:08:40.715Z,18.50
2022-12-26T11:11:48.396Z,18.50
2022-12-26T11:14:44.402Z,18.50
2022-12-26T11:17:27.409Z,18.60
2022-12-26T11:20:10.207Z,18.60
2022-12-26T11:22:36.887Z,18.60
2022-12-26T11:25:22.391Z,18.50
2022-12-26T11:27:55.216Z,18.50
2022-12-26T11:30:26.508Z,18.50
2022-12-26T11:33:30.924Z,18.60
2022-12-26T11:36:07.466Z,18.60
2022-12-26T11:38:49.668Z,18.60
2022-12-26T11:41:31.539Z,18.70
2022-12-26T11:44:33.140Z,18.70
2022-12-26T11:47:10.308Z,18.70
2022-12-26T11:49:52.938Z,18.80
2022-12-26T11:52:38.696Z,18.80
2022-12-26T11:55:23.917Z,18.80
2022-12-26T11:58:02.071Z,18.80
2022-12-26T12:00:29.768Z,18.80
2022-12-26T12:02:56.503Z,18.80
2022-12-26T12:05:31.510Z,18.80
2022-12-26T12:08:00.894Z,18.80
2022-12-26T12:10:30.883Z,18.80
2022-12-26T12:13:17.738Z,18.90
2022-12-26T12:15:51.152Z,19.00
2022-12-26T12:18:40.557Z,19.00
2022-12-26T12:21:19.238Z,19.00
2022-12-26T12:23:48.543Z,19.00
2022-12-26T12:26:24.539Z,19.00
2022-12-26T12:29:32.771Z,19.00
2022-12-26T12:32:18.314Z,19.00
2022-12-26T12:35:11.787Z,19.00
2022-12-26T12:38:00.393Z,19.00
2022-12-26T12:40:38.735Z,19.00
2022-12-26T12:43:25.486Z,19.00
2022-12-26T12:46:10.267Z,19.00
2022-12-26T12:48:54.666Z,19.00
2022-12-26T12:51:41.617Z,19.00
2022-12-26T12:54:39.018Z,19.00
2022-12-26T12:57:23.818Z,19.00
2022-12-26T13:00:09.627Z,19.00
2022-12-26T13:02:58.536Z,19.00
2022-12-26T13:05:43.601Z,19.00
2022-12-26T13:08:40.318Z,19.00
2022-12-26T13:11:13.423Z,19.00
2022-12-26T13:13:53.368Z,19.10
2022-12-26T13:16:25.604Z,18.80
2022-12-26T13:19:01.747Z,18.30
2022-12-26T13:21:32.293Z,18.10
2022-12-26T13:24:24.419Z,17.70
2022-12-26T13:27:03.189Z,17.70
2022-12-26T13:29:43.102Z,17.40
2022-12-26T13:32:30.652Z,17.20
2022-12-26T13:35:00.373Z,17.30
2022-12-26T13:37:55.462Z,17.30
2022-12-26T13:40:27.325Z,17.40
2022-12-26T13:43:23.907Z,17.50
2022-12-26T13:45:55.044Z,17.40
2022-12-26T13:48:21.632Z,17.30
2022-12-26T13:50:55.972Z,17.30
2022-12-26T13:53:34.240Z,17.20
2022-12-26T13:56:03.931Z,17.20
2022-12-26T13:58:57.922Z,17.20
2022-12-26T14:01:37.391Z,17.10
2022-12-26T14:04:40.813Z,17.20
2022-12-26T14:07:38.334Z,17.00
2022-12-26T14:10:15.302Z,17.00
2022-12-26T14:12:47.828Z,17.20
2022-12-26T14:15:37.074Z,17.60
2022-12-26T14:18:30.399Z,18.00
2022-12-26T14:21:25.677Z,18.30
2022-12-26T14:24:10.784Z,18.40
2022-12-26T14:26:49.215Z,18.50
2022-12-26T14:29:29.416Z,18.60
2022-12-26T14:32:47.036Z,18.60
2022-12-26T14:35:51.258Z,18.60
2022-12-26T14:38:36.507Z,18.70
2022-12-26T14:41:30.585Z,18.80
2022-12-26T14:43:58.211Z,18.80
2022-12-26T14:46:30.979Z,18.80
2022-12-26T14:49:00.615Z,18.90
2022-12-26T14:51:31.308Z,18.90
2022-12-26T14:54:21.913Z,18.90
2022-12-26T14:56:50.469Z,18.90
2022-12-26T14:59:31.163Z,19.00
2022-12-26T15:02:19.010Z,19.00
2022-12-26T15:05:14.158Z,18.90
2022-12-26T15:07:59.739Z,19.00
2022-12-26T15:10:55.172Z,19.10
2022-12-26T15:13:45.483Z,19.10
2022-12-26T15:16:41.700Z,19.20
2022-12-26T15:19:32.954Z,19.20
2022-12-26T15:22:14.614Z,19.30
2022-12-26T15:25:23.203Z,19.30
2022-12-26T15:27:59.276Z,19.30
2022-12-26T15:30:53.706Z,19.30
2022-12-26T15:33:44.672Z,19.30
2022-12-26T15:36:22.499Z,19.40
2022-12-26T15:39:19.344Z,19.40
2022-12-26T15:41:52.964Z,19.40
2022-12-26T15:44:48.478Z,19.50
2022-12-26T15:47:17.618Z,19.50
2022-12-26T15:49:48.998Z,19.40
2022-12-26T15:52:48.895Z,19.50
2022-12-26T15:55:39.413Z,19.50
2022-12-26T15:58:33.732Z,19.50
2022-12-26T16:01:00.736Z,19.50
2022-12-26T16:03:56.016Z,19.50
2022-12-26T16:06:50.624Z,19.50
2022-12-26T16:09:38.459Z,19.50
2022-12-26T16:12:22.329Z,19.60
2022-12-26T16:14:49.981Z,19.50
2022-12-26T16:17:18.228Z,19.60
2022-12-26T16:19:46.915Z,19.60
2022-12-26T16:22:37.190Z,19.50
2022-12-26T16:25:03.993Z,19.50
2022-12-26T16:27:30.931Z,19.60
2022-12-26T16:30:11.961Z,19.60
2022-12-26T16:32:41.568Z,19.60
2022-12-26T16:35:35.381Z,19.60
2022-12-26T16:38:06.371Z,19.60
2022-12-26T16:40:40.093Z,19.60
2022-12-26T16:43:18.898Z,19.60
2022-12-26T16:45:51.457Z,19.70
2022-12-26T16:48:21.659Z,19.80
2022-12-26T16:51:00.707Z,19.80
2022-12-26T16:53:36.932Z,19.80
2022-12-26T16:56:28.913Z,19.80
2022-12-26T16:59:04.743Z,19.90
2022-12-26T17:01:32.915Z,19.90
2022-12-26T17:04:07.933Z,19.90
2022-12-26T17:06:38.629Z,20.00
2022-12-26T17:09:12.829Z,20.00
2022-12-26T17:12:00.558Z,19.90
2022-12-26T17:14:38.726Z,19.90
2022-12-26T17:17:28.892Z,19.90
2022-12-26T17:19:58.112Z,19.90
2022-12-26T17:22:31.912Z,19.80
2022-12-26T17:25:34.263Z,19.80
2022-12-26T17:28:09.832Z,19.80
2022-12-26T17:30:37.430Z,19.70
2022-12-26T17:33:28.408Z,19.70
2022-12-26T17:38:51.625Z,19.70
2022-12-26T17:41:18.692Z,19.70
2022-12-26T17:43:47.162Z,19.70
2022-12-26T17:46:16.306Z,19.70
2022-12-26T17:48:43.325Z,19.70
2022-12-26T17:51:15.576Z,19.70
2022-12-26T17:53:46.505Z,19.70
2022-12-26T17:56:20.173Z,19.70
2022-12-26T17:58:47.820Z,19.70
2022-12-26T18:01:20.657Z,19.70
2022-12-26T18:03:48.444Z,19.70
2022-12-26T18:06:16.511Z,19.70
2022-12-26T18:08:44.620Z,19.70
2022-12-26T18:11:13.571Z,19.70
2022-12-26T18:13:40.785Z,19.70
2022-12-26T18:16:10.233Z,19.70
2022-12-26T18:18:39.808Z,19.70
2022-12-26T18:21:08.548Z,19.80
2022-12-26T18:23:35.472Z,19.80
2022-12-26T18:26:05.998Z,19.90
2022-12-26T18:28:34.175Z,19.90
2022-12-26T18:31:01.121Z,19.90
2022-12-26T18:33:28.126Z,19.90
2022-12-26T18:35:55.308Z,20.00
2022-12-26T18:38:22.097Z,22.40
2022-12-26T18:40:53.251Z,20.10
2022-12-26T18:43:20.234Z,20.10
2022-12-26T18:45:47.003Z,20.10
2022-12-26T18:48:16.411Z,20.10
2022-12-26T18:50:43.701Z,20.10
2022-12-26T18:53:10.829Z,20.00
2022-12-26T18:55:38.079Z,20.00
2022-12-26T18:58:04.723Z,20.00
2022-12-26T19:00:31.626Z,20.00
2022-12-26T19:02:58.487Z,20.00
2022-12-26T19:05:28.616Z,20.00
2022-12-26T19:07:55.539Z,20.00
2022-12-26T19:10:24.886Z,20.00
2022-12-26T19:12:51.594Z,20.00
2022-12-26T19:15:18.758Z,20.00
2022-12-26T19:17:45.683Z,20.00
2022-12-26T19:20:22.032Z,20.00
2022-12-26T19:22:49.888Z,20.00
2022-12-26T19:25:17.177Z,20.00
2022-12-26T19:27:44.182Z,20.00
2022-12-26T19:30:11.716Z,20.00
2022-12-26T19:32:38.515Z,20.00
2022-12-26T19:35:06.234Z,20.00
2022-12-26T19:37:33.065Z,19.90
2022-12-26T19:39:59.698Z,19.90
2022-12-26T19:42:26.485Z,19.90
2022-12-26T19:44:53.179Z,19.90
2022-12-26T19:47:19.869Z,19.80
2022-12-26T19:49:46.544Z,19.80
2022-12-26T19:52:13.510Z,19.80
2022-12-26T19:54:40.124Z,19.80
2022-12-26T19:57:06.752Z,19.80
2022-12-26T19:59:33.453Z,19.80
2022-12-26T20:02:00.214Z,19.80
2022-12-26T20:04:27.386Z,19.80
2022-12-26T20:06:54.056Z,19.80
2022-12-26T20:09:20.640Z,19.80
2022-12-26T20:11:49.422Z,19.90
2022-12-26T20:14:18.638Z,19.90
2022-12-26T20:17:08.257Z,19.90
2022-12-26T20:19:36.275Z,19.90
2022-12-26T20:22:04.040Z,19.90
2022-12-26T20:24:30.941Z,19.90
2022-12-26T20:26:57.604Z,19.80
2022-12-26T20:29:24.651Z,19.80
2022-12-26T20:31:54.879Z,19.90
2022-12-26T20:34:21.901Z,19.90
2022-12-26T20:36:48.567Z,19.80
2022-12-26T20:39:18.181Z,19.90
2022-12-26T20:41:45.063Z,19.90
2022-12-26T20:44:16.401Z,19.90
2022-12-26T20:46:44.100Z,19.90
2022-12-26T20:49:11.275Z,20.00
2022-12-26T20:51:40.036Z,20.00
2022-12-26T20:54:09.049Z,20.00
2022-12-26T20:56:37.077Z,20.00
2022-12-26T20:59:07.746Z,20.00
2022-12-26T21:01:35.421Z,20.10
2022-12-26T21:04:02.276Z,20.00
2022-12-26T21:06:31.895Z,20.00
2022-12-26T21:08:58.933Z,19.90
2022-12-26T21:11:31.428Z,20.00
2022-12-26T21:14:01.139Z,19.90
2022-12-26T21:16:32.661Z,19.90
2022-12-26T21:18:59.928Z,19.90
2022-12-26T21:21:32.152Z,19.90
2022-12-26T21:24:12.238Z,19.80
2022-12-26T21:26:41.731Z,19.80
2022-12-26T21:29:12.297Z,19.80
2022-12-26T21:31:38.977Z,19.80
2022-12-26T21:34:05.989Z,19.00
2022-12-26T21:36:34.403Z,19.80
2022-12-26T21:39:06.471Z,19.80
2022-12-26T21:41:33.379Z,19.80
2022-12-26T21:43:59.958Z,19.80
2022-12-26T21:46:26.971Z,19.80
2022-12-26T21:48:55.073Z,19.70
2022-12-26T21:51:26.698Z,19.70
2022-12-26T21:54:13.494Z,19.70
2022-12-26T21:56:40.227Z,19.70
2022-12-26T21:59:25.379Z,19.70
2022-12-26T22:01:52.042Z,19.70
2022-12-26T22:04:18.677Z,19.70
2022-12-26T22:06:45.361Z,19.70
2022-12-26T22:09:12.020Z,19.70
2022-12-26T22:11:57.421Z,19.70
2022-12-26T22:14:24.575Z,19.60
2022-12-26T22:16:52.797Z,19.70
2022-12-26T22:19:19.381Z,19.60
2022-12-26T22:21:46.068Z,19.60
2022-12-26T22:24:12.895Z,19.60
2022-12-26T22:26:39.683Z,19.60
2022-12-26T22:29:06.395Z,19.60
2022-12-26T22:31:35.592Z,19.60
2022-12-26T22:34:06.163Z,19.60
2022-12-26T22:36:33.762Z,19.60
2022-12-26T22:39:00.717Z,19.50
2022-12-26T22:41:28.506Z,19.50
2022-12-26T22:43:55.569Z,19.60
2022-12-26T22:46:22.577Z,19.70
2022-12-26T22:48:49.305Z,19.60
2022-12-26T22:51:18.460Z,19.50
2022-12-26T22:53:45.090Z,19.50
2022-12-26T22:56:12.130Z,19.50
2022-12-26T22:58:38.828Z,19.50
2022-12-26T23:01:16.483Z,19.60
2022-12-26T23:03:43.613Z,19.50
2022-12-26T23:06:28.337Z,19.50
2022-12-26T23:08:59.199Z,19.50
2022-12-26T23:11:34.441Z,19.60
2022-12-26T23:14:03.499Z,19.60
2022-12-26T23:16:52.353Z,19.60
2022-12-26T23:19:45.664Z,19.70
2022-12-26T23:22:12.587Z,19.60
2022-12-26T23:24:39.292Z,19.70
2022-12-26T23:27:37.445Z,19.70
2022-12-26T23:30:17.903Z,19.70
2022-12-26T23:32:46.954Z,19.70
2022-12-26T23:35:13.848Z,19.70
2022-12-26T23:37:40.776Z,19.70
2022-12-26T23:40:09.627Z,19.60
2022-12-26T23:42:37.059Z,19.90
2022-12-26T23:45:04.072Z,19.70
2022-12-26T23:47:30.764Z,19.70
2022-12-26T23:49:57.420Z,19.60
2022-12-26T23:52:29.894Z,19.60
2022-12-26T23:54:57.526Z,19.60
2022-12-26T23:57:24.406Z,19.50
2022-12-26T23:59:51.418Z,19.50
